Time;durP1;ratioP1;P1;durP2;ratioP2;P2;SDS_P1;SDS_P2;PMS_P1;PMS_P2;Temp;Humidity;BMP_temperature;BMP_pressure;BME280_temperature;BME280_humidity;BME280_pressure;Samples;Min_cycle;Max_cycle;Signal;HPM_P1;HPM_P2
2022/04/05 00:02:13;;;;;;;;;;;4.60;99.90;;;3.73;81.35;96669.34;5025258;28;19951;-77
2022/04/05 00:04:39;;;;;;;;;;;4.60;99.90;;;3.71;82.41;96677.19;5024710;28;19934;-77
2022/04/05 00:07:04;;;;;;;;;;;4.70;99.90;;;3.65;82.20;96660.84;5020587;28;20122;-77
2022/04/05 00:09:30;;;;;;;;;;;4.70;99.90;;;3.77;82.11;96687.53;5026254;28;19917;-77
2022/04/05 00:11:56;;;;;;;;;;;4.70;99.90;;;3.77;82.36;96684.06;5015615;28;20393;-77
2022/04/05 00:14:22;;;;;;;;;;;4.70;99.90;;;3.71;82.74;96681.56;5026635;28;19917;-77
2022/04/05 00:16:48;;;;;;;;;;;4.70;99.90;;;3.72;84.21;96672.88;5020031;28;20054;-77
2022/04/05 00:21:57;;;;;;;;;;;4.60;99.90;;;3.68;83.94;96659.03;5022531;28;20010;-78
2022/04/05 00:24:23;;;;;;;;;;;4.60;99.90;;;3.63;85.10;96653.91;5022580;28;19937;-78
2022/04/05 00:26:49;;;;;;;;;;;4.60;99.90;;;3.65;84.15;96664.31;5003890;28;20819;-78
2022/04/05 00:29:14;;;;;;;;;;;4.60;99.90;;;3.71;84.08;96663.31;5018561;28;20334;-78
2022/04/05 00:31:40;;;;;;;;;;;4.60;99.90;;;3.61;82.47;96647.03;5021144;28;20059;-78
2022/04/05 00:34:06;;;;;;;;;;;4.60;99.90;;;3.74;83.95;96668.47;5020293;28;20009;-78
2022/04/05 00:36:31;;;;;;;;;;;4.60;99.90;;;3.89;81.85;96675.94;5005270;28;20019;-78
2022/04/05 00:38:57;;;;;;;;;;;4.70;99.90;;;3.83;81.63;96663.06;5021997;28;20047;-78
2022/04/05 00:41:23;;;;;;;;;;;4.70;99.90;;;3.88;81.80;96674.25;5022587;28;19921;-78
2022/04/05 00:43:48;;;;;;;;;;;4.70;99.90;;;3.85;82.06;96676.91;5006219;28;20401;-78
2022/04/05 00:46:14;;;;;;;;;;;4.70;99.90;;;3.77;82.43;96661.44;5022863;28;19921;-80
2022/04/05 00:48:52;;;;;;;;;;;4.70;99.90;;;3.87;81.86;96667.28;5018675;28;19962;-78
2022/04/05 00:51:19;;;;;;;;;;;4.70;99.90;;;3.89;82.68;96667.28;5021110;28;19927;-78
2022/04/05 00:53:47;;;;;;;;;;;4.80;99.90;;;3.86;82.16;96663.00;5022347;28;19963;-78
2022/04/05 00:56:16;;;;;;;;;;;4.80;99.90;;;3.83;82.14;96657.84;5038017;28;19924;-78
2022/04/05 00:58:46;;;;;;;;;;;4.80;99.90;;;3.87;82.21;96656.03;5037887;28;19999;-79
2022/04/05 01:01:17;;;;;;;;;;;4.70;99.90;;;3.79;82.54;96641.41;5021295;28;19935;-78
2022/04/05 01:03:51;;;;;;;;;;;4.80;99.90;;;3.94;81.28;96654.97;5018615;28;20007;-79
2022/04/05 01:06:18;;;;;;;;;;;4.80;99.90;;;3.97;81.46;96653.16;5007883;28;20661;-79
2022/04/05 01:08:47;;;;;;;;;;;4.80;99.90;;;3.95;81.66;96647.13;5020930;28;19925;-78
2022/04/05 01:11:13;;;;;;;;;;;4.80;99.90;;;3.87;82.34;96629.94;5019557;28;19994;-78
2022/04/05 01:13:38;;;;;;;;;;;4.80;99.90;;;3.98;81.52;96635.75;5004125;28;20239;-78
2022/04/05 01:16:04;;;;;;;;;;;4.80;99.90;;;3.95;82.00;96633.25;5022790;28;19928;-78
2022/04/05 01:18:30;;;;;;;;;;;4.80;99.90;;;3.98;81.25;96636.63;5008403;28;19925;-78
2022/04/05 01:20:56;;;;;;;;;;;4.80;99.90;;;4.04;80.57;96624.31;5023043;28;20226;-78
2022/04/05 01:23:22;;;;;;;;;;;4.90;99.90;;;4.05;81.88;96639.09;5008845;28;20319;-79
2022/04/05 01:25:49;;;;;;;;;;;4.90;99.90;;;3.95;81.83;96628.88;5024591;28;20431;-78
2022/04/05 01:28:14;;;;;;;;;;;4.90;99.90;;;3.87;81.25;96622.09;5021875;28;19936;-78
2022/04/05 01:30:41;;;;;;;;;;;4.90;99.90;;;4.06;81.67;96646.03;5021799;28;19925;-78
2022/04/05 01:33:07;;;;;;;;;;;4.90;99.90;;;4.06;82.70;96635.59;5005398;28;19921;-78
2022/04/05 01:35:34;;;;;;;;;;;4.90;99.90;;;4.04;83.18;96639.97;5017767;28;19967;-78
2022/04/05 01:38:03;;;;;;;;;;;4.90;99.90;;;4.02;83.68;96637.41;5023155;28;19925;-78
2022/04/05 01:40:29;;;;;;;;;;;4.90;99.90;;;4.00;83.05;96633.97;5022440;28;19972;-78
2022/04/05 01:42:55;;;;;;;;;;;4.90;99.90;;;4.04;82.77;96634.75;5029495;28;20024;-78
2022/04/05 01:45:20;;;;;;;;;;;4.90;99.90;;;3.97;84.66;96621.84;5021048;28;20934;-78
2022/04/05 01:47:46;;;;;;;;;;;4.90;99.90;;;4.05;85.23;96626.03;5023506;28;19929;-78
2022/04/05 01:50:12;;;;;;;;;;;4.90;99.90;;;4.05;84.78;96613.00;5004805;28;20078;-78
2022/04/05 01:52:38;;;;;;;;;;;4.90;99.90;;;4.04;84.82;96612.16;5023872;28;20015;-78
2022/04/05 01:55:05;;;;;;;;;;;4.90;99.90;;;4.10;85.85;96624.19;5026152;28;19924;-78
2022/04/05 01:57:30;;;;;;;;;;;4.90;99.90;;;3.97;86.64;96589.72;5007888;28;19928;-78
2022/04/05 01:59:56;;;;;;;;;;;4.90;99.90;;;4.02;87.50;96613.94;5022200;28;19921;-78
2022/04/05 02:02:22;;;;;;;;;;;4.90;99.90;;;3.92;89.01;96604.59;5029002;28;20523;-78
2022/04/05 02:04:47;;;;;;;;;;;4.80;99.90;;;3.96;93.15;96611.47;5027426;28;19947;-78
2022/04/05 02:07:14;;;;;;;;;;;4.80;99.90;;;3.78;93.78;96594.47;5023841;28;20493;-78
2022/04/05 02:09:41;;;;;;;;;;;4.80;99.90;;;3.83;93.00;96603.06;5023374;28;19948;-78
2022/04/05 02:12:07;;;;;;;;;;;4.70;99.90;;;3.80;95.12;96596.19;5026256;28;19921;-79
2022/04/05 02:14:35;;;;;;;;;;;4.70;99.90;;;3.75;94.72;96582.38;5010193;28;19921;-79
2022/04/05 02:17:01;;;;;;;;;;;4.70;99.90;;;3.75;92.33;96591.94;5006908;28;20358;-79
2022/04/05 02:19:26;;;;;;;;;;;4.60;99.90;;;3.63;94.47;96588.72;5024090;28;22104;-79
2022/04/05 02:21:52;;;;;;;;;;;4.60;99.90;;;3.63;95.08;96593.09;5013157;28;19917;-79
2022/04/05 02:24:18;;;;;;;;;;;4.60;99.90;;;3.66;96.30;96592.16;5025238;28;20444;-79
2022/04/05 02:26:43;;;;;;;;;;;4.50;99.90;;;3.67;95.38;96597.31;5027424;28;19982;-79
2022/04/05 02:29:09;;;;;;;;;;;4.50;99.90;;;3.65;96.85;96586.09;5026396;28;19927;-78
2022/04/05 02:31:35;;;;;;;;;;;4.50;99.90;;;3.63;98.04;96591.31;5026805;28;20452;-78
2022/04/05 02:34:00;;;;;;;;;;;4.50;99.90;;;3.66;97.69;96582.59;5027370;28;19967;-78
2022/04/05 02:36:26;;;;;;;;;;;4.50;99.90;;;3.61;99.50;96576.63;5011468;28;19925;-78
2022/04/05 02:38:52;;;;;;;;;;;4.50;99.90;;;3.63;96.49;96601.75;5029285;28;20135;-78
2022/04/05 02:41:18;;;;;;;;;;;4.50;99.90;;;3.54;99.14;96578.50;5023937;28;19960;-78
2022/04/05 02:43:44;;;;;;;;;;;4.50;99.90;;;3.57;100.00;96578.44;5028148;28;19933;-78
2022/04/05 02:46:11;;;;;;;;;;;4.50;99.90;;;3.57;100.00;96595.81;5024268;28;19974;-78
2022/04/05 02:48:43;;;;;;;;;;;4.50;99.90;;;3.53;99.86;96581.13;5027775;28;19931;-78
2022/04/05 02:51:17;;;;;;;;;;;4.50;99.90;;;3.56;100.00;96596.72;5011089;28;20285;-78
2022/04/05 02:53:43;;;;;;;;;;;4.50;99.90;;;3.53;100.00;96587.19;5027036;28;19916;-78
2022/04/05 02:56:09;;;;;;;;;;;4.40;99.90;;;3.54;100.00;96588.94;5026538;28;20306;-78
2022/04/05 02:58:35;;;;;;;;;;;4.40;99.90;;;3.55;100.00;96582.84;5030083;28;19950;-78
2022/04/05 03:01:02;;;;;;;;;;;4.40;99.90;;;3.51;100.00;96575.09;5025817;28;19960;-77
2022/04/05 03:03:28;;;;;;;;;;;4.40;99.90;;;3.56;100.00;96586.28;5042928;28;19929;-77
2022/04/05 03:05:53;;;;;;;;;;;4.40;99.90;;;3.52;100.00;96589.88;5027726;28;20368;-77
2022/04/05 03:08:19;;;;;;;;;;;4.40;99.90;;;3.54;100.00;96601.13;5029305;28;19925;-77
2022/04/05 03:10:45;;;;;;;;;;;4.40;99.90;;;3.47;100.00;96592.56;5031145;28;20262;-77
2022/04/05 03:13:12;;;;;;;;;;;4.30;99.90;;;3.45;100.00;96591.75;5029217;28;19927;-77
2022/04/05 03:15:37;;;;;;;;;;;4.30;99.90;;;3.41;100.00;96582.25;5008825;28;20325;-77
2022/04/05 03:18:03;;;;;;;;;;;4.30;99.90;;;3.43;100.00;96589.16;5030464;28;19917;-77
2022/04/05 03:20:29;;;;;;;;;;;4.30;99.90;;;3.39;100.00;96581.44;5031374;28;20003;-77
2022/04/05 03:22:56;;;;;;;;;;;4.30;99.90;;;3.34;100.00;96588.47;5035650;28;19989;-77
2022/04/05 03:25:23;;;;;;;;;;;4.30;99.90;;;3.38;100.00;96598.81;5032076;28;20000;-77
2022/04/05 03:27:48;;;;;;;;;;;4.30;99.90;;;3.33;100.00;96600.66;5031848;28;20387;-77
2022/04/05 03:30:16;;;;;;;;;;;4.30;99.90;;;3.39;100.00;96605.78;5029020;28;21208;-77
2022/04/05 03:32:41;;;;;;;;;;;4.20;99.90;;;3.43;100.00;96612.63;5030275;28;19925;-77
2022/04/05 03:35:08;;;;;;;;;;;4.30;99.90;;;3.39;100.00;96608.38;5030275;28;19931;-78
2022/04/05 03:37:34;;;;;;;;;;;4.20;99.90;;;3.38;100.00;96624.88;5030138;28;20007;-78
2022/04/05 03:40:00;;;;;;;;;;;4.30;99.90;;;3.27;100.00;96606.03;5025777;28;20387;-78
2022/04/05 03:42:26;;;;;;;;;;;4.20;99.90;;;3.36;100.00;96603.22;5013359;28;20385;-78
2022/04/05 03:44:52;;;;;;;;;;;4.30;99.90;;;3.41;100.00;96600.50;5025812;28;21148;-79
2022/04/05 03:47:18;;;;;;;;;;;4.30;99.90;;;3.47;100.00;96612.56;5029221;28;19932;-78
2022/04/05 03:49:43;;;;;;;;;;;4.30;99.90;;;3.47;100.00;96609.97;5026952;28;20592;-78
2022/04/05 03:52:09;;;;;;;;;;;4.30;99.90;;;3.42;100.00;96603.06;5006711;28;19916;-77
2022/04/05 03:54:35;;;;;;;;;;;4.30;99.90;;;3.36;100.00;96603.22;5014497;28;19921;-78
2022/04/05 03:57:01;;;;;;;;;;;4.30;99.90;;;3.42;100.00;96616.09;5028671;28;20154;-79
2022/04/05 03:59:26;;;;;;;;;;;4.30;99.90;;;3.41;100.00;96610.91;5029950;28;19921;-78
2022/04/05 04:01:52;;;;;;;;;;;4.30;99.90;;;3.51;100.00;96604.63;5028852;28;19971;-78
2022/04/05 04:04:17;;;;;;;;;;;4.30;99.90;;;3.48;100.00;96603.84;5029846;28;19931;-78
2022/04/05 04:06:44;;;;;;;;;;;4.30;99.90;;;3.46;100.00;96600.41;5027771;28;19939;-77
2022/04/05 04:09:11;;;;;;;;;;;4.40;99.90;;;3.51;100.00;96602.03;5011302;28;19925;-78
2022/04/05 04:11:40;;;;;;;;;;;4.40;99.90;;;3.51;100.00;96595.97;5030441;28;19931;-78
2022/04/05 04:14:08;;;;;;;;;;;4.40;99.90;;;3.49;100.00;96598.59;5028496;28;19931;-77
2022/04/05 04:16:34;;;;;;;;;;;4.40;99.90;;;3.52;100.00;96601.16;5027775;28;19978;-76
2022/04/05 04:19:00;;;;;;;;;;;4.40;99.90;;;3.47;100.00;96600.38;5043135;28;19925;-77
2022/04/05 04:21:25;;;;;;;;;;;4.40;99.90;;;3.40;100.00;96597.03;5026113;28;19967;-77
2022/04/05 04:23:51;;;;;;;;;;;4.30;99.90;;;3.44;100.00;96592.63;5024750;28;20357;-77
2022/04/05 04:26:17;;;;;;;;;;;4.30;99.90;;;3.40;100.00;96588.38;5027402;28;19983;-77
2022/04/05 04:28:42;;;;;;;;;;;4.30;99.90;;;3.32;100.00;96582.44;5024298;28;20608;-77
2022/04/05 04:31:08;;;;;;;;;;;4.20;99.90;;;3.36;100.00;96592.78;5054331;22;20016;-44
2022/04/05 04:33:34;;;;;;;;;;;4.20;99.90;;;3.34;100.00;96585.88;5069423;28;19978;-42
2022/04/05 04:36:00;;;;;;;;;;;4.20;99.90;;;3.32;100.00;96579.84;5065143;28;19924;-43
2022/04/05 04:38:25;;;;;;;;;;;4.20;99.90;;;3.31;100.00;96578.16;5062853;28;20462;-42
2022/04/05 04:40:51;;;;;;;;;;;4.20;99.90;;;3.31;100.00;96581.59;5057862;28;19927;-44
2022/04/05 04:43:17;;;;;;;;;;;4.20;99.90;;;3.20;100.00;96562.75;5053134;28;19921;-43
2022/04/05 04:45:44;;;;;;;;;;;4.20;99.90;;;3.31;100.00;96578.16;5047131;28;19925;-43
2022/04/05 04:48:09;;;;;;;;;;;4.20;99.90;;;3.31;100.00;96581.59;5055630;28;19952;-42
2022/04/05 04:50:35;;;;;;;;;;;4.20;99.90;;;3.30;100.00;96579.03;5050175;28;19959;-42
2022/04/05 04:53:01;;;;;;;;;;;4.20;99.90;;;3.26;100.00;96580.84;5039480;28;19970;-43
2022/04/05 04:55:28;;;;;;;;;;;4.20;99.90;;;3.29;100.00;96587.75;5038361;28;20433;-45
2022/04/05 04:57:54;;;;;;;;;;;4.20;99.90;;;3.28;100.00;96586.88;5044518;28;20268;-44
2022/04/05 05:00:19;;;;;;;;;;;4.10;99.90;;;3.28;100.00;96588.63;5048028;28;19931;-43
2022/04/05 05:02:48;;;;;;;;;;;4.20;99.90;;;3.28;100.00;96591.22;5044906;28;20062;-44
2022/04/05 05:05:21;;;;;;;;;;;4.20;99.90;;;3.24;100.00;96598.25;5042519;28;19947;-43
2022/04/05 05:07:48;;;;;;;;;;;4.10;99.90;;;3.17;100.00;96594.91;5051444;28;20378;-43
2022/04/05 05:10:15;;;;;;;;;;;4.10;99.90;;;3.18;100.00;96593.19;5045021;28;19916;-43
2022/04/05 05:12:41;;;;;;;;;;;4.10;99.90;;;3.22;100.00;96602.66;5049291;28;20580;-42
2022/04/05 05:15:15;;;;;;;;;;;4.10;99.90;;;3.23;100.00;96609.56;5050536;28;20047;-42
2022/04/05 05:17:41;;;;;;;;;;;4.10;99.90;;;3.24;100.00;96609.53;5051864;28;19924;-43
2022/04/05 05:20:07;;;;;;;;;;;4.10;99.90;;;3.26;100.00;96614.72;5048159;28;20352;-42
2022/04/05 05:22:33;;;;;;;;;;;4.10;99.90;;;3.26;100.00;96606.91;5040020;28;19921;-42
2022/04/05 05:24:59;;;;;;;;;;;4.10;99.90;;;3.27;100.00;96613.84;5050608;28;19935;-42
2022/04/05 05:27:24;;;;;;;;;;;4.10;99.90;;;3.22;100.00;96600.88;5044522;28;19928;-42
2022/04/05 05:29:50;;;;;;;;;;;4.10;99.90;;;3.29;100.00;96614.66;5048880;28;19990;-43
2022/04/05 05:32:16;;;;;;;;;;;4.20;99.90;;;3.29;100.00;96606.84;5054710;28;19934;-43
2022/04/05 05:34:41;;;;;;;;;;;4.10;99.90;;;3.29;100.00;96616.41;5049167;28;19924;-42
2022/04/05 05:37:08;;;;;;;;;;;4.10;99.90;;;3.23;100.00;96613.03;5048039;28;19928;-42
2022/04/05 05:39:36;;;;;;;;;;;4.10;99.90;;;3.24;100.00;96619.09;5046555;28;19924;-43
2022/04/05 05:42:01;;;;;;;;;;;4.10;99.90;;;3.24;100.00;96614.75;5046614;28;20434;-42
2022/04/05 05:44:27;;;;;;;;;;;4.10;99.90;;;3.27;100.00;96620.78;5046467;28;20192;-43
2022/04/05 05:46:53;;;;;;;;;;;4.10;99.90;;;3.25;100.00;96616.47;5047449;28;20328;-42
2022/04/05 05:49:18;;;;;;;;;;;4.10;99.90;;;3.31;100.00;96622.44;5053025;28;19924;-43
2022/04/05 05:51:44;;;;;;;;;;;4.20;99.90;;;3.34;100.00;96624.97;5045447;28;19968;-43
2022/04/05 05:54:09;;;;;;;;;;;4.20;99.90;;;3.36;100.00;96626.69;5044939;28;19932;-43
2022/04/05 05:56:35;;;;;;;;;;;4.20;99.90;;;3.36;100.00;96626.69;5055860;28;20453;-41
2022/04/05 05:59:01;;;;;;;;;;;4.20;99.90;;;3.39;100.00;96626.63;5044128;28;19966;-43
2022/04/05 06:01:26;;;;;;;;;;;4.30;99.90;;;3.39;100.00;96630.94;5047847;28;21220;-42
2022/04/05 06:03:52;;;;;;;;;;;4.20;99.90;;;3.42;100.00;96629.13;5046424;28;20029;-42
2022/04/05 06:06:18;;;;;;;;;;;4.30;99.90;;;3.43;100.00;96628.25;5045375;28;20070;-42
2022/04/05 06:08:43;;;;;;;;;;;4.30;99.90;;;3.45;100.00;96630.84;5048952;28;20052;-45
2022/04/05 06:11:10;;;;;;;;;;;4.30;99.90;;;3.46;100.00;96632.53;5047226;28;19976;-50
2022/04/05 06:13:36;;;;;;;;;;;4.30;99.90;;;3.49;100.00;96635.09;5045858;28;19943;-46
2022/04/05 06:16:02;;;;;;;;;;;4.30;99.90;;;3.50;100.00;96635.94;5052582;28;19916;-45
2022/04/05 06:18:28;;;;;;;;;;;4.30;99.90;;;3.37;100.00;96607.53;5041659;28;20144;-48
2022/04/05 06:20:53;;;;;;;;;;;4.40;99.90;;;3.57;100.00;96641.00;5055015;28;21170;-45
2022/04/05 06:23:19;;;;;;;;;;;4.40;99.90;;;3.63;100.00;96645.22;5048766;28;19929;-47
2022/04/05 06:25:44;;;;;;;;;;;4.50;99.90;;;3.65;100.00;96634.78;5050646;28;20421;-49
2022/04/05 06:28:10;;;;;;;;;;;4.50;99.90;;;3.68;100.00;96645.13;5037781;28;20618;-48
2022/04/05 06:30:37;;;;;;;;;;;4.50;99.90;;;3.68;100.00;96632.97;5044464;28;20246;-47
2022/04/05 06:33:04;;;;;;;;;;;4.50;99.90;;;3.70;100.00;96639.00;5051083;28;20965;-45
2022/04/05 06:35:30;;;;;;;;;;;4.50;99.90;;;3.69;100.00;96631.19;5056606;28;20039;-46
2022/04/05 06:37:55;;;;;;;;;;;4.60;99.90;;;3.70;100.00;96638.16;5057925;28;19916;-44
2022/04/05 06:40:21;;;;;;;;;;;4.60;99.90;;;3.74;100.00;96642.41;5061067;28;20606;-47
2022/04/05 06:42:46;;;;;;;;;;;4.60;99.90;;;3.77;100.00;96640.56;5055256;28;20013;-45
2022/04/05 06:45:14;;;;;;;;;;;4.70;99.90;;;3.79;100.00;96645.75;5049483;28;19928;-45
2022/04/05 06:47:41;;;;;;;;;;;4.70;99.90;;;3.78;100.00;96644.88;5047833;28;19920;-47
2022/04/05 06:50:08;;;;;;;;;;;4.60;99.90;;;3.80;100.00;96642.25;5048491;28;19921;-45
2022/04/05 06:52:36;;;;;;;;;;;4.60;99.90;;;3.83;100.00;96640.41;5061993;28;20762;-47
2022/04/05 06:55:02;;;;;;;;;;;4.70;99.90;;;3.89;100.00;96641.19;5062368;28;19924;-45
2022/04/05 06:57:27;;;;;;;;;;;4.70;99.90;;;3.92;100.00;96630.69;5043126;28;19935;-45
2022/04/05 06:59:53;;;;;;;;;;;4.80;99.90;;;3.98;100.00;96635.75;5059868;28;19924;-45
2022/04/05 07:02:19;;;;;;;;;;;4.80;99.90;;;4.01;100.00;96636.53;5056957;28;20018;-45
2022/04/05 07:04:44;;;;;;;;;;;4.90;99.90;;;4.04;100.00;96640.84;5054712;28;19932;-46
2022/04/05 07:07:10;;;;;;;;;;;4.90;99.90;;;4.10;100.00;96625.03;5046305;28;19925;-46
2022/04/05 07:09:35;;;;;;;;;;;5.00;99.90;;;4.14;100.00;96621.44;5050796;28;20390;-47
2022/04/05 07:12:01;;;;;;;;;;;5.00;99.90;;;4.12;100.00;96638.06;5048287;28;19974;-47
2022/04/05 07:14:27;;;;;;;;;;;5.00;99.90;;;4.15;100.00;96630.16;5056899;28;20109;-44
2022/04/05 07:16:52;;;;;;;;;;;5.00;99.90;;;4.14;100.00;96624.06;5047633;28;20353;-46
2022/04/05 07:19:18;;;;;;;;;;;5.00;99.90;;;4.20;100.00;96631.75;5051437;28;20307;-45
2022/04/05 07:21:44;;;;;;;;;;;5.10;99.90;;;4.27;100.00;96629.88;5052961;28;19943;-45
2022/04/05 07:24:10;;;;;;;;;;;5.10;99.90;;;4.38;100.00;96634.81;5049481;28;19928;-46
2022/04/05 07:26:35;;;;;;;;;;;5.30;99.90;;;4.47;100.00;96637.19;5046005;28;20048;-47
2022/04/05 07:29:01;;;;;;;;;;;5.30;99.90;;;4.54;100.00;96630.94;5061291;28;19935;-45
2022/04/05 07:31:26;;;;;;;;;;;5.40;99.90;;;4.59;100.00;96636.00;5039482;28;19959;-46
2022/04/05 07:33:52;;;;;;;;;;;5.40;99.90;;;4.61;100.00;96634.22;5034339;28;20412;-46
2022/04/05 07:36:18;;;;;;;;;;;5.40;99.90;;;4.64;100.00;96635.91;5045568;28;20421;-45
2022/04/05 07:38:43;;;;;;;;;;;5.50;99.90;;;4.64;100.00;96620.25;5046141;28;20005;-50
2022/04/05 07:41:09;;;;;;;;;;;5.50;99.90;;;4.63;100.00;96624.63;5055589;28;19924;-45
2022/04/05 07:43:34;;;;;;;;;;;5.50;99.90;;;4.63;100.00;96627.22;5046633;28;19924;-46
2022/04/05 07:46:00;;;;;;;;;;;5.50;99.90;;;4.54;100.00;96620.50;5047978;28;20015;-49
2022/04/05 07:48:28;;;;;;;;;;;5.50;99.90;;;4.68;100.00;96637.53;5053533;28;19924;-46
2022/04/05 07:50:54;;;;;;;;;;;5.50;99.90;;;4.64;100.00;96639.38;5055505;28;19940;-44
2022/04/05 07:53:19;;;;;;;;;;;5.50;99.90;;;4.69;100.00;96636.66;5054979;28;19927;-45
2022/04/05 07:55:45;;;;;;;;;;;5.50;99.90;;;4.59;100.00;96607.28;5058188;28;19920;-46
2022/04/05 07:58:11;;;;;;;;;;;5.50;99.90;;;4.79;100.00;96625.06;5052019;28;19920;-43
2022/04/05 08:00:37;;;;;;;;;;;5.60;99.90;;;4.87;100.00;96622.25;5053265;28;19924;-47
2022/04/05 08:03:03;;;;;;;;;;;5.70;99.90;;;5.03;100.00;96628.78;5047818;28;19916;-49
2022/04/05 08:05:29;;;;;;;;;;;5.80;99.90;;;5.18;100.00;96630.09;5053138;28;19924;-48
2022/04/05 08:07:55;;;;;;;;;;;6.00;99.90;;;5.31;100.00;96626.25;5051697;28;20235;-49
2022/04/05 08:10:21;;;;;;;;;;;6.20;99.90;;;5.32;100.00;96617.50;5062944;28;19970;-47
2022/04/05 08:12:48;;;;;;;;;;;6.30;99.90;;;5.61;100.00;96630.63;5058615;28;19919;-45
2022/04/05 08:15:23;;;;;;;;;;;6.40;99.90;;;5.79;100.00;96637.09;5053409;28;20360;-44
2022/04/05 08:17:50;;;;;;;;;;;6.50;99.90;;;5.86;100.00;96636.84;5047394;28;20394;-47
2022/04/05 08:20:16;;;;;;;;;;;6.60;99.90;;;5.83;100.00;96631.72;5051996;28;19928;-44
2022/04/05 08:22:42;;;;;;;;;;;6.70;99.90;;;5.85;100.00;96631.66;5054209;28;19928;-44
2022/04/05 08:25:09;;;;;;;;;;;6.70;99.90;;;5.90;100.00;96632.38;5057308;28;19967;-44
2022/04/05 08:27:36;;;;;;;;;;;6.80;99.90;;;5.98;100.00;96647.91;5053785;28;19924;-46
2022/04/05 08:30:03;;;;;;;;;;;6.80;99.90;;;5.99;100.00;96644.34;5052803;28;20399;-44
2022/04/05 08:32:29;;;;;;;;;;;6.80;99.90;;;6.02;100.00;96646.88;5044194;28;19924;-45
2022/04/05 08:34:55;;;;;;;;;;;6.90;99.90;;;6.07;100.00;96652.84;5056090;28;20019;-43
2022/04/05 08:37:22;;;;;;;;;;;6.90;99.90;;;6.09;100.00;96654.50;5055009;28;19930;-44
2022/04/05 08:39:48;;;;;;;;;;;6.90;99.90;;;6.11;100.00;96660.53;5046813;28;19924;-44
2022/04/05 08:42:14;;;;;;;;;;;6.90;99.90;;;6.19;100.00;96659.44;5056992;28;20299;-44
2022/04/05 08:44:42;;;;;;;;;;;7.00;99.90;;;6.25;100.00;96659.25;5051781;28;19972;-43
2022/04/05 08:47:10;;;;;;;;;;;7.00;99.90;;;6.33;100.00;96659.00;5045600;28;19939;-45
2022/04/05 08:49:37;;;;;;;;;;;7.10;99.90;;;6.45;100.00;96658.63;5055135;28;19920;-44
2022/04/05 08:52:03;;;;;;;;;;;7.20;99.90;;;6.57;100.00;96657.34;5041963;28;20095;-44
2022/04/05 08:54:28;;;;;;;;;;;7.30;99.90;;;6.71;100.00;96659.50;5055388;28;19923;-44
2022/04/05 08:56:54;;;;;;;;;;;7.50;99.90;;;6.78;100.00;96654.00;5040180;28;20407;-45
2022/04/05 08:59:20;;;;;;;;;;;7.60;99.90;;;6.98;100.00;96653.34;5039469;28;21096;-44
2022/04/05 09:01:46;;;;;;;;;;;7.80;99.90;;;7.18;100.00;96651.81;5040271;28;19920;-44
2022/04/05 09:04:12;;;;;;;;;;;8.00;99.90;;;7.22;100.00;96624.56;5043163;28;20374;-45
2022/04/05 09:06:37;;;;;;;;;;;8.20;99.90;;;7.52;100.00;96651.44;5045898;28;19956;-42
2022/04/05 09:09:10;;;;;;;;;;;8.30;99.90;;;7.51;100.00;96647.09;5042333;28;19994;-46
2022/04/05 09:11:42;;;;;;;;;;;8.40;99.90;;;7.67;100.00;96657.88;5054900;28;20005;-44
2022/04/05 09:14:08;;;;;;;;;;;8.50;99.90;;;7.65;100.00;96662.34;5050029;28;19920;-44
2022/04/05 09:16:34;;;;;;;;;;;8.50;99.90;;;7.77;100.00;96661.00;5047658;28;19925;-44
2022/04/05 09:19:11;;;;;;;;;;;8.60;99.90;;;7.66;100.00;96669.28;5059271;28;19965;-44
2022/04/05 09:22:00;;;;;;;;;;;8.60;99.90;;;7.64;100.00;96651.00;5049890;28;20296;-45
2022/04/05 09:24:37;;;;;;;;;;;8.50;99.90;;;7.74;100.00;96659.38;5057054;28;20011;-44
2022/04/05 09:27:04;;;;;;;;;;;8.50;99.90;;;7.88;100.00;96663.22;5046764;28;20592;-45
2022/04/05 09:29:43;;;;;;;;;;;8.70;99.90;;;7.96;100.00;96667.28;5050019;28;20332;-45
2022/04/05 09:32:10;;;;;;;;;;;8.80;99.90;;;8.03;100.00;96654.78;5048777;28;20061;-43
2022/04/05 09:34:50;;;;;;;;;;;8.90;99.90;;;8.07;100.00;96666.84;5058484;28;19924;-44
2022/04/05 09:37:15;;;;;;;;;;;8.90;99.90;;;8.11;100.00;96660.59;5045445;28;19928;-44
2022/04/05 09:39:41;;;;;;;;;;;9.00;99.90;;;8.25;100.00;96667.06;5051571;28;19925;-43
2022/04/05 09:42:08;;;;;;;;;;;9.10;99.90;;;8.32;99.20;96671.16;5057478;28;20361;-44
2022/04/05 09:44:43;;;;;;;;;;;9.20;99.90;;;8.34;99.82;96671.94;5045295;28;19928;-43
2022/04/05 09:47:17;;;;;;;;;;;9.20;99.90;;;8.20;99.34;96665.50;5044155;28;19920;-43
2022/04/05 09:49:45;;;;;;;;;;;9.10;99.90;;;8.07;99.13;96671.25;5054125;28;19979;-45
2022/04/05 09:52:33;;;;;;;;;;;9.00;99.90;;;8.05;100.00;96676.56;5053544;28;19992;-44
2022/04/05 09:55:30;;;;;;;;;;;8.80;99.90;;;8.02;100.00;96679.31;5050571;28;19939;-43
2022/04/05 09:57:56;;;;;;;;;;;8.80;99.90;;;8.07;100.00;96674.75;5042546;28;19926;-44
2022/04/05 10:00:22;;;;;;;;;;;8.80;99.90;;;8.04;100.00;96682.75;5049342;28;20034;-43
2022/04/05 10:03:04;;;;;;;;;;;8.80;99.90;;;8.06;100.00;96683.56;5043426;28;20960;-44
2022/04/05 10:05:31;;;;;;;;;;;8.80;99.90;;;8.07;100.00;96684.41;5051819;28;19935;-43
2022/04/05 10:07:58;;;;;;;;;;;8.80;99.90;;;8.05;100.00;96689.69;5038085;28;19983;-46
2022/04/05 10:10:24;;;;;;;;;;;8.80;99.90;;;8.03;100.00;96686.28;5030151;28;19924;-43
2022/04/05 10:12:50;;;;;;;;;;;8.70;99.90;;;8.03;100.00;96688.91;5049780;28;19920;-44
2022/04/05 10:15:16;;;;;;;;;;;8.70;99.90;;;7.99;100.00;96674.19;5049851;28;19925;-43
2022/04/05 10:17:45;;;;;;;;;;;8.70;99.90;;;8.06;100.00;96688.81;5048030;28;19935;-44
2022/04/05 10:20:16;;;;;;;;;;;8.70;99.90;;;7.99;100.00;96687.31;5051867;28;20518;-43
2022/04/05 10:22:43;;;;;;;;;;;8.70;99.90;;;7.90;100.00;96674.56;5052399;28;19931;-43
2022/04/05 10:25:09;;;;;;;;;;;8.70;99.90;;;8.03;100.00;96681.03;5052632;28;20300;-43
2022/04/05 10:27:35;;;;;;;;;;;8.70;99.90;;;8.10;100.00;96690.38;5046773;28;20417;-43
2022/04/05 10:30:04;;;;;;;;;;;8.80;99.90;;;8.14;100.00;96685.88;5041734;28;19924;-46
2022/04/05 10:32:34;;;;;;;;;;;8.80;99.90;;;8.11;100.00;96683.34;5046828;28;19921;-44
2022/04/05 10:35:08;;;;;;;;;;;8.80;99.90;;;8.07;100.00;96680.00;5064092;22;20348;-58
2022/04/05 10:37:38;;;;;;;;;;;8.80;99.90;;;8.02;100.00;96676.69;5045941;28;19924;-58
2022/04/05 10:40:10;;;;;;;;;;;8.70;99.90;;;8.01;100.00;96675.00;5045589;28;20456;-58
2022/04/05 10:42:49;;;;;;;;;;;8.70;99.90;;;8.00;100.00;96678.50;5042397;28;20469;-58
2022/04/05 10:45:17;;;;;;;;;;;8.70;99.90;;;8.02;100.00;96671.44;5029110;28;19928;-58
2022/04/05 10:47:58;;;;;;;;;;;8.70;99.90;;;8.07;100.00;96677.38;5028368;28;19928;-58
2022/04/05 10:50:23;;;;;;;;;;;8.70;99.90;;;8.09;100.00;96678.16;5020059;28;20196;-58
2022/04/05 10:53:22;;;;;;;;;;;8.70;99.90;;;8.03;100.00;96676.63;5027832;28;19925;-58
2022/04/05 10:56:03;;;;;;;;;;;8.70;99.90;;;8.05;100.00;96665.22;5032932;28;19978;-58
2022/04/05 10:58:33;;;;;;;;;;;8.70;99.90;;;8.01;100.00;96664.47;5023320;28;20460;-58
2022/04/05 11:01:18;;;;;;;;;;;8.70;99.90;;;8.06;100.00;96675.66;5025609;28;20020;-58
2022/04/05 11:04:17;;;;;;;;;;;8.80;99.90;;;8.16;100.00;96679.63;5030066;28;19929;-58
2022/04/05 11:07:07;;;;;;;;;;;8.80;99.90;;;8.27;100.00;96676.59;5030349;28;19991;-58
2022/04/05 11:09:40;;;;;;;;;;;8.90;99.90;;;8.34;100.00;96672.81;5030648;28;20102;-57
2022/04/05 11:12:11;;;;;;;;;;;9.00;99.90;;;8.32;100.00;96660.66;5031328;28;20300;-57
2022/04/05 11:14:41;;;;;;;;;;;9.10;99.90;;;8.48;100.00;96674.06;5032408;28;19931;-59
2022/04/05 11:17:09;;;;;;;;;;;9.20;99.90;;;8.53;100.00;96670.34;5032860;28;19928;-57
2022/04/05 11:19:40;;;;;;;;;;;9.20;99.90;;;8.58;100.00;96667.53;5033685;28;20347;-57
2022/04/05 11:22:20;;;;;;;;;;;9.30;99.90;;;8.60;100.00;96669.16;5032865;28;19963;-57
2022/04/05 11:24:49;;;;;;;;;;;9.30;99.90;;;8.70;100.00;96666.16;5032869;28;19924;-58
2022/04/05 11:27:35;;;;;;;;;;;9.40;99.90;;;8.64;100.00;96669.06;5033223;28;19925;-57
2022/04/05 11:30:23;;;;;;;;;;;9.40;99.90;;;8.72;100.00;96661.69;5033368;28;20221;-58
2022/04/05 11:33:09;;;;;;;;;;;9.40;99.90;;;8.67;100.00;96667.16;5034799;28;19924;-58